createdAt,value
2023-04-17T00:00:26.193Z,94.96
2023-04-17T00:01:29.905Z,94.97
2023-04-17T00:02:32.339Z,95.03
2023-04-17T00:03:35.378Z,94.87
2023-04-17T00:04:40.206Z,94.97
2023-04-17T00:05:44.355Z,95.02
2023-04-17T00:06:46.732Z,95.09
2023-04-17T00:07:48.971Z,95.08
2023-04-17T00:08:51.587Z,94.78
2023-04-17T00:09:53.897Z,94.64
2023-04-17T00:11:06.540Z,94.54
2023-04-17T00:12:00.876Z,94.20
2023-04-17T00:13:03.213Z,94.15
2023-04-17T00:14:05.655Z,94.16
2023-04-17T00:15:08.454Z,94.08
2023-04-17T00:16:12.121Z,93.97
2023-04-17T00:17:14.650Z,93.87
2023-04-17T00:18:16.884Z,93.78
2023-04-17T00:19:19.438Z,93.87
2023-04-17T00:20:21.731Z,93.81
2023-04-17T00:21:24.198Z,93.97
2023-04-17T00:22:26.660Z,94.06
2023-04-17T00:23:29.027Z,94.10
2023-04-17T00:24:31.480Z,94.26
2023-04-17T00:25:34.017Z,94.32
2023-04-17T00:26:36.497Z,94.25
2023-04-17T00:27:40.022Z,94.25
2023-04-17T00:28:42.516Z,94.04
2023-04-17T00:29:44.974Z,94.01
2023-04-17T00:30:47.322Z,94.05
2023-04-17T00:31:50.149Z,94.09
2023-04-17T00:32:53.618Z,94.02
2023-04-17T00:33:58.138Z,93.37
2023-04-17T00:35:00.974Z,93.27
2023-04-17T00:36:04.039Z,93.27
2023-04-17T00:37:06.331Z,93.15
2023-04-17T00:38:08.781Z,93.14
2023-04-17T00:39:11.693Z,93.26
2023-04-17T00:40:15.282Z,93.17
2023-04-17T00:41:17.949Z,93.20
2023-04-17T00:42:20.188Z,92.90
2023-04-17T00:43:22.335Z,92.90
2023-04-17T00:44:25.090Z,92.76
2023-04-17T00:45:30.333Z,92.82
2023-04-17T00:46:32.705Z,92.89
2023-04-17T00:47:34.947Z,92.79
2023-04-17T00:48:37.622Z,92.77
2023-04-17T00:49:40.460Z,92.76
2023-04-17T00:50:44.865Z,92.56
2023-04-17T00:51:48.509Z,92.39
2023-04-17T00:52:51.669Z,92.07
2023-04-17T00:53:54.960Z,91.68
2023-04-17T00:54:59.646Z,91.70
2023-04-17T00:56:06.390Z,91.67
2023-04-17T00:57:09.095Z,91.72
2023-04-17T00:58:12.073Z,91.80
2023-04-17T00:59:17.050Z,92.22
2023-04-17T01:00:19.684Z,92.56
2023-04-17T01:01:22.190Z,92.78
2023-04-17T01:02:26.207Z,92.97
2023-04-17T01:03:31.558Z,92.88
2023-04-17T01:04:34.414Z,92.92
2023-04-17T01:05:37.751Z,93.08
2023-04-17T01:06:41.603Z,93.12
2023-04-17T01:07:46.562Z,93.04
2023-04-17T01:08:51.049Z,93.11
2023-04-17T01:09:54.132Z,92.92
2023-04-17T01:10:58.169Z,93.00
2023-04-17T01:13:33.164Z,94.10
2023-04-17T01:14:36.174Z,94.31
2023-04-17T01:15:38.481Z,94.36
2023-04-17T01:16:41.456Z,94.63
2023-04-17T01:17:44.029Z,94.81
2023-04-17T01:18:47.657Z,94.87
2023-04-17T01:19:50.271Z,94.80
2023-04-17T01:20:52.763Z,94.80
2023-04-17T01:21:55.409Z,94.69
2023-04-17T01:22:58.922Z,94.75
2023-04-17T01:24:03.277Z,94.79
2023-04-17T01:25:07.784Z,94.86
2023-04-17T01:26:19.185Z,94.71
2023-04-17T01:27:21.951Z,94.70
2023-04-17T01:28:24.666Z,95.00
2023-04-17T01:29:27.315Z,95.26
2023-04-17T01:30:30.795Z,95.33
2023-04-17T01:31:37.857Z,95.64
2023-04-17T01:32:40.819Z,95.67
2023-04-17T01:33:43.780Z,95.81
2023-04-17T01:34:46.288Z,95.73
2023-04-17T01:35:48.801Z,95.69
2023-04-17T01:36:51.951Z,95.80
2023-04-17T01:37:55.532Z,95.93
2023-04-17T01:38:58.809Z,96.13
2023-04-17T01:40:01.900Z,96.13
2023-04-17T01:41:05.985Z,96.14
2023-04-17T01:42:09.427Z,96.35
2023-04-17T01:43:11.922Z,96.11
2023-04-17T01:44:15.074Z,96.32
2023-04-17T01:45:17.436Z,96.32
2023-04-17T01:46:21.887Z,96.31
2023-04-17T01:47:24.682Z,96.33
2023-04-17T01:48:27.757Z,96.03
2023-04-17T01:49:31.279Z,95.78
2023-04-17T01:50:33.865Z,95.41
2023-04-17T01:51:36.107Z,95.16
2023-04-17T01:52:39.305Z,95.15
2023-04-17T01:54:46.489Z,95.11
2023-04-17T01:55:48.842Z,94.82
2023-04-17T01:56:51.368Z,94.87
2023-04-17T01:57:53.933Z,94.79
2023-04-17T01:58:56.196Z,94.83
2023-04-17T01:59:58.450Z,94.92
2023-04-17T02:01:00.720Z,94.84
2023-04-17T02:02:03.785Z,94.87
2023-04-17T02:03:06.455Z,95.09
2023-04-17T02:04:09.327Z,95.19
2023-04-17T02:05:11.781Z,95.18
2023-04-17T02:06:16.091Z,95.16
2023-04-17T02:07:20.857Z,95.13
2023-04-17T02:08:23.663Z,94.98
2023-04-17T02:09:26.511Z,94.82
2023-04-17T02:10:30.388Z,94.72
2023-04-17T02:11:32.713Z,94.77
2023-04-17T02:12:35.037Z,94.66
2023-04-17T02:13:37.659Z,94.81
2023-04-17T02:14:40.120Z,94.72
2023-04-17T02:15:42.382Z,94.58
2023-04-17T02:16:47.784Z,94.83
2023-04-17T02:17:50.791Z,94.64
2023-04-17T02:18:53.691Z,94.74
2023-04-17T02:19:56.214Z,94.47
2023-04-17T02:20:58.756Z,94.50
2023-04-17T02:22:02.491Z,94.43
2023-04-17T02:23:06.790Z,94.45
2023-04-17T02:24:08.975Z,94.08
2023-04-17T02:25:11.122Z,93.82
2023-04-17T02:26:13.585Z,93.35
2023-04-17T02:27:17.882Z,92.99
2023-04-17T02:28:20.228Z,92.55
2023-04-17T02:29:22.381Z,92.28
2023-04-17T02:30:27.132Z,92.00
2023-04-17T02:31:31.158Z,92.09
2023-04-17T02:32:34.024Z,92.15
2023-04-17T02:33:38.006Z,92.20
2023-04-17T02:34:40.974Z,92.31
2023-04-17T02:35:43.481Z,92.08
2023-04-17T02:36:46.008Z,91.93
2023-04-17T02:37:48.367Z,92.23
2023-04-17T02:38:50.827Z,92.12
2023-04-17T02:39:54.070Z,92.27
2023-04-17T02:40:57.291Z,92.13
2023-04-17T02:42:03.170Z,92.17
2023-04-17T02:43:05.815Z,91.68
2023-04-17T02:44:08.606Z,90.88
2023-04-17T02:45:11.383Z,90.17
2023-04-17T02:46:15.536Z,90.18
2023-04-17T02:47:18.135Z,89.73
2023-04-17T02:48:20.995Z,89.21
2023-04-17T02:49:23.446Z,88.95
2023-04-17T02:50:25.793Z,88.47
2023-04-17T02:51:36.500Z,88.10
2023-04-17T02:52:40.279Z,88.18
2023-04-17T02:53:43.146Z,88.04
2023-04-17T02:54:45.732Z,88.02
2023-04-17T02:55:49.441Z,88.97
2023-04-17T02:56:59.080Z,89.09
2023-04-17T02:58:01.538Z,89.51
2023-04-17T02:59:04.516Z,89.18
2023-04-17T03:00:07.836Z,89.42
2023-04-17T03:01:11.742Z,89.83
2023-04-17T03:02:18.708Z,90.04
2023-04-17T03:03:21.231Z,90.22
2023-04-17T03:04:24.269Z,90.08
2023-04-17T03:05:28.637Z,89.69
2023-04-17T03:06:32.225Z,89.86
2023-04-17T03:07:34.466Z,89.69
2023-04-17T03:08:38.287Z,88.90
2023-04-17T03:09:42.534Z,88.84
2023-04-17T03:10:45.024Z,88.23
2023-04-17T03:11:50.992Z,87.94
2023-04-17T03:12:53.335Z,88.30
2023-04-17T03:13:55.561Z,88.32
2023-04-17T03:14:57.808Z,88.61
2023-04-17T03:16:01.106Z,88.43
2023-04-17T03:17:03.804Z,88.45
2023-04-17T03:18:06.113Z,88.76
2023-04-17T03:19:08.596Z,89.12
2023-04-17T03:20:12.025Z,89.09
2023-04-17T03:21:14.588Z,88.80
2023-04-17T03:22:17.131Z,89.21
2023-04-17T03:23:19.891Z,89.54
2023-04-17T03:24:22.044Z,88.87
2023-04-17T03:25:24.462Z,88.87
2023-04-17T03:26:29.669Z,89.10
2023-04-17T03:27:34.204Z,89.55
2023-04-17T03:28:38.295Z,89.91
2023-04-17T03:29:40.632Z,89.63
2023-04-17T03:30:43.763Z,89.83
2023-04-17T03:31:46.046Z,89.68
2023-04-17T03:32:49.414Z,89.62
2023-04-17T03:33:52.559Z,89.68
2023-04-17T03:34:55.758Z,90.13
2023-04-17T03:35:58.225Z,90.09
2023-04-17T03:37:00.655Z,89.19
2023-04-17T03:38:05.146Z,88.83
2023-04-17T03:39:07.508Z,88.74
2023-04-17T03:40:11.404Z,88.86
2023-04-17T03:41:13.798Z,88.06
2023-04-17T03:42:16.254Z,87.92
2023-04-17T03:43:19.869Z,87.53
2023-04-17T03:44:22.213Z,87.99
2023-04-17T03:45:25.636Z,88.22
2023-04-17T03:46:28.522Z,87.63
2023-04-17T03:47:31.544Z,87.11
2023-04-17T03:48:34.610Z,87.21
2023-04-17T03:49:37.184Z,86.99
2023-04-17T03:50:40.989Z,87.25
2023-04-17T03:51:43.678Z,87.42
2023-04-17T03:52:47.884Z,87.24
2023-04-17T03:53:51.243Z,87.59
2023-04-17T03:54:54.262Z,87.56
2023-04-17T03:55:57.000Z,87.56
2023-04-17T03:57:04.502Z,87.39
2023-04-17T03:58:07.562Z,86.67
2023-04-17T03:59:10.078Z,85.43
2023-04-17T04:00:16.044Z,85.45
2023-04-17T04:01:23.073Z,85.11
2023-04-17T04:02:29.993Z,84.54
2023-04-17T04:03:32.874Z,84.25
2023-04-17T04:04:36.947Z,83.66
2023-04-17T04:05:41.704Z,83.71
2023-04-17T04:06:46.696Z,83.72
2023-04-17T04:07:50.727Z,83.25
2023-04-17T04:08:56.591Z,82.87
2023-04-17T04:09:59.017Z,82.99
2023-04-17T04:11:02.717Z,83.23
2023-04-17T04:12:09.940Z,83.14
2023-04-17T04:13:16.750Z,81.69
2023-04-17T04:14:21.067Z,81.78
2023-04-17T04:15:24.981Z,82.16
2023-04-17T04:16:29.272Z,81.87
2023-04-17T04:17:33.803Z,81.37
2023-04-17T04:18:36.628Z,80.44
2023-04-17T04:19:40.388Z,80.63
2023-04-17T04:20:43.490Z,80.70
2023-04-17T04:21:49.205Z,80.87
2023-04-17T04:22:52.170Z,81.03
2023-04-17T04:23:55.794Z,80.70
2023-04-17T04:24:58.920Z,80.70
2023-04-17T04:26:03.122Z,80.42
2023-04-17T04:27:17.234Z,79.92
2023-04-17T04:28:22.982Z,80.15
2023-04-17T04:29:25.362Z,80.26
2023-04-17T04:30:29.953Z,79.87
2023-04-17T04:31:35.143Z,79.34
2023-04-17T04:32:38.322Z,79.03
2023-04-17T04:33:43.978Z,78.95
2023-04-17T04:34:46.894Z,78.25
2023-04-17T04:35:51.283Z,78.56
2023-04-17T04:36:54.309Z,78.72
2023-04-17T04:38:01.462Z,79.31
2023-04-17T04:39:06.178Z,78.89
2023-04-17T04:40:11.817Z,78.74
2023-04-17T04:41:17.196Z,77.86
2023-04-17T04:42:22.827Z,77.83
2023-04-17T04:43:33.616Z,77.67
2023-04-17T04:44:36.905Z,77.89
2023-04-17T04:45:39.963Z,78.13
2023-04-17T04:46:42.451Z,77.60
2023-04-17T04:47:44.819Z,76.52
2023-04-17T04:48:47.502Z,77.08
2023-04-17T04:49:50.445Z,76.83
2023-04-17T04:50:58.098Z,76.98
2023-04-17T04:52:00.647Z,76.84
2023-04-17T04:53:05.275Z,76.78
2023-04-17T04:54:15.477Z,75.94
2023-04-17T04:55:22.345Z,75.79
2023-04-17T04:56:26.081Z,74.98
2023-04-17T04:57:30.027Z,75.06
2023-04-17T04:58:34.477Z,75.49
2023-04-17T04:59:39.073Z,75.66
2023-04-17T05:01:00.263Z,75.24
2023-04-17T05:02:08.434Z,75.38
2023-04-17T05:03:12.176Z,74.95
2023-04-17T05:04:15.118Z,75.09
2023-04-17T05:05:17.938Z,74.22
2023-04-17T05:06:20.740Z,74.71
2023-04-17T05:07:25.412Z,74.18
2023-04-17T05:08:28.928Z,74.14
2023-04-17T05:09:35.486Z,74.67
2023-04-17T05:10:39.193Z,73.96
2023-04-17T05:11:41.617Z,73.96
2023-04-17T05:12:44.575Z,74.15
2023-04-17T05:13:47.333Z,73.73
2023-04-17T05:14:51.518Z,73.61
2023-04-17T05:15:54.753Z,73.90
2023-04-17T05:16:59.242Z,73.52
2023-04-17T05:18:03.293Z,72.91
2023-04-17T05:19:08.365Z,72.75
2023-04-17T05:20:21.601Z,72.28
2023-04-17T05:21:27.908Z,72.25
2023-04-17T05:22:31.670Z,73.20
2023-04-17T05:23:35.814Z,71.80
2023-04-17T05:24:40.275Z,71.67
2023-04-17T05:25:44.427Z,72.00
2023-04-17T05:26:47.032Z,70.96
2023-04-17T05:27:49.546Z,70.96
2023-04-17T05:28:52.246Z,70.13
2023-04-17T05:29:56.412Z,69.66
2023-04-17T05:30:59.719Z,69.27
2023-04-17T05:32:04.110Z,69.84
2023-04-17T05:33:17.494Z,69.29
2023-04-17T05:34:24.915Z,68.28
2023-04-17T05:35:29.468Z,69.03
2023-04-17T05:36:32.638Z,68.36
2023-04-17T05:37:36.352Z,68.36
2023-04-17T05:38:38.666Z,69.33
2023-04-17T05:39:42.707Z,68.69
2023-04-17T05:40:46.007Z,68.73
2023-04-17T05:41:48.412Z,67.99
2023-04-17T05:42:50.564Z,67.67
2023-04-17T05:43:53.490Z,67.34
2023-04-17T05:44:56.025Z,67.16
2023-04-17T05:45:58.781Z,67.78
2023-04-17T05:47:01.458Z,67.04
2023-04-17T05:48:04.093Z,67.21
2023-04-17T05:49:06.413Z,67.21
2023-04-17T05:50:10.462Z,67.37
2023-04-17T05:51:13.973Z,66.66
2023-04-17T05:52:17.232Z,66.76
2023-04-17T05:53:20.211Z,66.39
2023-04-17T05:54:29.126Z,66.45
2023-04-17T05:55:33.003Z,66.75
2023-04-17T05:56:36.159Z,66.27
2023-04-17T05:57:38.352Z,66.04
2023-04-17T05:58:42.482Z,65.93
2023-04-17T05:59:46.964Z,65.67
2023-04-17T06:00:50.247Z,65.92
2023-04-17T06:01:53.252Z,64.78
2023-04-17T06:02:57.116Z,64.77
2023-04-17T06:04:14.785Z,65.14
2023-04-17T06:05:20.069Z,65.17
2023-04-17T06:06:23.045Z,64.87
2023-04-17T06:07:28.627Z,66.15
2023-04-17T06:08:33.225Z,66.19
2023-04-17T06:09:36.724Z,65.27
2023-04-17T06:10:39.253Z,65.81
2023-04-17T06:11:41.501Z,65.98
2023-04-17T06:12:44.839Z,65.86
2023-04-17T06:13:47.474Z,67.06
2023-04-17T06:14:51.618Z,66.17
2023-04-17T06:15:55.485Z,66.65
2023-04-17T06:16:58.731Z,66.54
2023-04-17T06:18:01.409Z,66.49
2023-04-17T06:19:04.028Z,66.74
2023-04-17T06:20:09.891Z,66.28
2023-04-17T06:21:12.268Z,67.22
2023-04-17T06:22:15.630Z,66.99
2023-04-17T06:23:18.102Z,66.46
2023-04-17T06:24:21.060Z,66.92
2023-04-17T06:25:23.564Z,66.49
2023-04-17T06:26:27.524Z,65.63
2023-04-17T06:27:29.680Z,66.08
2023-04-17T06:28:32.420Z,65.99
2023-04-17T06:29:34.842Z,65.99
2023-04-17T06:30:39.178Z,66.06
2023-04-17T06:31:42.357Z,65.62
2023-04-17T06:32:44.753Z,64.41
2023-04-17T06:33:49.918Z,64.51
2023-04-17T06:34:59.456Z,64.73
2023-04-17T06:35:59.051Z,64.30
2023-04-17T06:37:03.727Z,64.99
2023-04-17T06:38:06.448Z,65.04
2023-04-17T06:39:09.014Z,65.75
2023-04-17T06:40:12.680Z,65.75
2023-04-17T06:41:15.754Z,65.16
2023-04-17T06:42:19.924Z,64.63
2023-04-17T06:43:24.106Z,64.75
2023-04-17T06:44:31.154Z,64.47
2023-04-17T06:45:35.521Z,65.17
2023-04-17T06:46:40.559Z,65.53
2023-04-17T06:47:47.891Z,64.34
2023-04-17T06:48:52.734Z,63.63
2023-04-17T06:49:57.145Z,62.83
2023-04-17T06:51:00.233Z,62.49
2023-04-17T06:52:03.959Z,61.29
2023-04-17T06:53:06.318Z,61.29
2023-04-17T06:54:11.270Z,61.04
2023-04-17T06:55:13.460Z,60.88
2023-04-17T06:56:16.258Z,61.18
2023-04-17T06:57:18.479Z,61.04
2023-04-17T06:58:20.870Z,60.55
2023-04-17T06:59:23.080Z,60.53
2023-04-17T07:00:27.058Z,60.87
2023-04-17T07:01:31.368Z,61.11
2023-04-17T07:02:33.892Z,60.85
2023-04-17T07:03:38.101Z,61.45
2023-04-17T07:04:41.084Z,61.74
2023-04-17T07:05:44.281Z,61.47
2023-04-17T07:06:46.961Z,61.96
2023-04-17T07:07:49.582Z,62.64
2023-04-17T07:08:53.539Z,62.96
2023-04-17T07:09:56.406Z,62.13
2023-04-17T07:10:59.642Z,62.44
2023-04-17T07:12:03.224Z,62.52
2023-04-17T07:13:05.303Z,61.52
2023-04-17T07:14:07.665Z,62.17
2023-04-17T07:15:11.062Z,62.45
2023-04-17T07:16:14.242Z,61.85
2023-04-17T07:17:17.125Z,62.09
2023-04-17T07:18:20.911Z,62.36
2023-04-17T07:19:23.270Z,61.46
2023-04-17T07:20:25.625Z,61.76
2023-04-17T07:21:28.260Z,61.83
2023-04-17T07:22:32.222Z,61.92
2023-04-17T07:23:35.172Z,61.72
2023-04-17T07:24:37.941Z,61.58
2023-04-17T07:25:40.571Z,61.86
2023-04-17T07:26:43.406Z,62.89
2023-04-17T07:27:45.877Z,62.41
2023-04-17T07:28:48.193Z,61.13
2023-04-17T07:29:52.851Z,61.23
2023-04-17T07:30:57.918Z,60.60
2023-04-17T07:32:00.267Z,60.47
2023-04-17T07:33:02.755Z,61.00
2023-04-17T07:34:05.552Z,61.68
2023-04-17T07:35:08.633Z,61.41
2023-04-17T07:36:11.452Z,60.43
2023-04-17T07:37:17.145Z,59.91
2023-04-17T07:38:20.405Z,59.17
2023-04-17T07:39:23.907Z,59.73
2023-04-17T07:40:26.869Z,59.14
2023-04-17T07:41:29.740Z,59.34
2023-04-17T07:42:31.972Z,59.01
2023-04-17T07:43:34.814Z,58.83
2023-04-17T07:44:38.994Z,57.96
2023-04-17T07:45:42.059Z,58.20
2023-04-17T07:46:44.619Z,57.63
2023-04-17T07:47:47.432Z,57.35
2023-04-17T07:48:49.868Z,57.52
2023-04-17T07:49:52.439Z,57.46
2023-04-17T07:50:54.845Z,58.01
2023-04-17T07:51:57.552Z,58.21
2023-04-17T07:53:01.576Z,59.27
2023-04-17T07:54:04.422Z,57.48
2023-04-17T07:55:07.316Z,56.97
2023-04-17T07:56:12.286Z,57.58
2023-04-17T07:57:15.472Z,57.61
2023-04-17T07:58:18.814Z,56.95
2023-04-17T07:59:22.790Z,58.16
2023-04-17T08:00:26.110Z,57.52
2023-04-17T08:01:28.621Z,57.99
2023-04-17T08:02:30.800Z,57.66
2023-04-17T08:03:34.658Z,57.49
2023-04-17T08:04:39.124Z,56.58
2023-04-17T08:05:41.816Z,57.27
2023-04-17T08:06:45.239Z,55.90
2023-04-17T08:07:47.392Z,56.80
2023-04-17T08:08:49.628Z,55.96
2023-04-17T08:09:52.356Z,56.29
2023-04-17T08:10:56.013Z,57.09
2023-04-17T08:11:58.857Z,56.28
2023-04-17T08:13:01.494Z,56.81
2023-04-17T08:14:03.697Z,55.31
2023-04-17T08:15:07.627Z,56.19
2023-04-17T08:16:10.358Z,57.07
2023-04-17T08:17:13.528Z,55.43
2023-04-17T08:18:16.369Z,55.96
2023-04-17T08:19:19.277Z,56.09
2023-04-17T08:20:22.148Z,55.84
2023-04-17T08:21:25.335Z,54.94
2023-04-17T08:22:29.436Z,53.92
2023-04-17T08:23:31.880Z,54.76
2023-04-17T08:24:34.454Z,54.77
2023-04-17T08:25:36.789Z,54.94
2023-04-17T08:26:39.019Z,54.94
2023-04-17T08:27:42.981Z,54.71
2023-04-17T08:28:46.586Z,55.74
2023-04-17T08:29:49.452Z,55.24
2023-04-17T08:30:51.942Z,54.35
2023-04-17T08:32:06.840Z,53.54
2023-04-17T08:32:58.226Z,54.42
2023-04-17T08:34:10.942Z,55.35
2023-04-17T08:35:07.571Z,55.28
2023-04-17T08:36:10.697Z,54.93
2023-04-17T08:37:13.773Z,54.61
2023-04-17T08:38:16.161Z,55.65
2023-04-17T08:39:19.034Z,56.12
2023-04-17T08:40:23.571Z,54.67
2023-04-17T08:41:28.926Z,53.91
2023-04-17T08:42:34.719Z,54.04
2023-04-17T08:43:37.543Z,55.00
2023-04-17T08:44:39.863Z,54.92
2023-04-17T08:45:50.321Z,55.88
2023-04-17T08:46:57.989Z,56.05
2023-04-17T08:48:00.402Z,56.12
2023-04-17T08:49:03.590Z,55.53
2023-04-17T08:50:10.684Z,54.92
2023-04-17T08:51:14.128Z,55.31
2023-04-17T08:52:17.042Z,55.55
2023-04-17T08:53:20.545Z,55.73
2023-04-17T08:54:23.471Z,55.92
2023-04-17T08:55:27.660Z,56.66
2023-04-17T08:56:30.426Z,55.77
2023-04-17T08:57:32.821Z,56.52
2023-04-17T08:58:36.475Z,56.77
2023-04-17T08:59:42.800Z,57.37
2023-04-17T09:00:50.700Z,57.35
2023-04-17T09:02:01.281Z,57.85
2023-04-17T09:03:10.728Z,57.75
2023-04-17T09:04:38.222Z,56.92
2023-04-17T09:05:44.894Z,57.32
2023-04-17T09:06:54.733Z,57.80
2023-04-17T09:08:14.632Z,57.70
2023-04-17T09:09:17.697Z,57.07
2023-04-17T09:10:20.255Z,57.46
2023-04-17T09:11:23.562Z,58.57
2023-04-17T09:12:26.608Z,56.45
2023-04-17T09:13:30.498Z,57.29
2023-04-17T09:14:33.838Z,57.47
2023-04-17T09:15:37.476Z,58.40
2023-04-17T09:16:44.017Z,60.40
2023-04-17T09:17:48.943Z,59.22
2023-04-17T09:18:52.344Z,57.30
2023-04-17T09:20:06.133Z,58.71
2023-04-17T09:21:09.241Z,57.04
2023-04-17T09:22:19.370Z,57.21
2023-04-17T09:23:23.770Z,58.78
2023-04-17T09:24:37.093Z,58.35
2023-04-17T09:25:40.200Z,56.68
2023-04-17T09:26:42.677Z,59.20
2023-04-17T09:27:47.253Z,57.99
2023-04-17T09:29:14.274Z,55.83
2023-04-17T09:30:19.247Z,56.98
2023-04-17T09:31:26.217Z,57.08
2023-04-17T09:32:31.565Z,57.10
2023-04-17T09:33:34.437Z,55.61
2023-04-17T09:34:41.720Z,55.69
2023-04-17T09:35:44.029Z,55.26
2023-04-17T09:36:46.517Z,55.51
2023-04-17T09:37:53.624Z,55.70
2023-04-17T09:38:57.170Z,55.73
2023-04-17T09:40:01.659Z,55.72
2023-04-17T09:41:05.263Z,54.99
2023-04-17T09:42:09.596Z,56.38
2023-04-17T09:43:12.593Z,57.07
2023-04-17T09:44:26.620Z,54.64
2023-04-17T09:45:32.321Z,55.03
2023-04-17T09:46:38.986Z,54.33
2023-04-17T09:47:44.681Z,54.57
2023-04-17T09:48:48.113Z,54.40
2023-04-17T09:49:53.366Z,57.07
2023-04-17T09:50:56.328Z,53.29
2023-04-17T09:51:59.976Z,56.15
2023-04-17T09:53:04.013Z,52.07
2023-04-17T09:54:08.216Z,51.43
2023-04-17T09:55:16.378Z,51.63
2023-04-17T09:56:21.848Z,52.76
2023-04-17T09:57:25.440Z,52.81
2023-04-17T09:58:30.195Z,52.78
2023-04-17T09:59:33.037Z,53.29
2023-04-17T10:00:37.309Z,53.01
2023-04-17T10:01:40.663Z,53.71
2023-04-17T10:02:44.542Z,52.39
2023-04-17T10:03:48.646Z,51.83
2023-04-17T10:04:52.861Z,51.80
2023-04-17T10:05:55.668Z,53.03
2023-04-17T10:06:58.083Z,53.67
2023-04-17T10:08:00.461Z,56.33
2023-04-17T10:09:05.980Z,51.03
2023-04-17T10:10:10.832Z,50.62
2023-04-17T10:11:13.701Z,49.76
2023-04-17T10:12:18.208Z,49.72
2023-04-17T10:13:27.686Z,49.98
2023-04-17T10:14:33.980Z,49.80
2023-04-17T10:15:36.376Z,52.32
2023-04-17T10:16:43.104Z,53.07
2023-04-17T10:17:46.329Z,49.75
2023-04-17T10:18:52.132Z,49.99
2023-04-17T10:19:55.913Z,50.52
2023-04-17T10:21:03.395Z,51.45
2023-04-17T10:22:22.392Z,49.36
2023-04-17T10:23:30.723Z,51.30
2023-04-17T10:24:33.287Z,49.46
2023-04-17T10:25:36.081Z,48.40
2023-04-17T10:26:40.651Z,48.66
2023-04-17T10:27:45.636Z,50.84
2023-04-17T10:28:50.434Z,49.91
2023-04-17T10:30:01.657Z,50.16
2023-04-17T10:31:04.167Z,50.04
2023-04-17T10:32:12.950Z,51.19
2023-04-17T10:33:19.406Z,51.82
2023-04-17T10:34:35.655Z,50.74
2023-04-17T10:35:37.950Z,49.62
2023-04-17T10:36:46.768Z,49.46
2023-04-17T10:37:53.274Z,51.11
2023-04-17T10:39:00.319Z,50.15
2023-04-17T10:40:04.688Z,48.96
2023-04-17T10:41:10.605Z,51.72
2023-04-17T10:42:19.184Z,48.44
2023-04-17T10:43:23.898Z,51.20
2023-04-17T10:44:26.127Z,48.05
2023-04-17T10:45:48.081Z,49.15
2023-04-17T10:48:01.451Z,47.69
2023-04-17T10:49:05.197Z,48.09
2023-04-17T10:50:09.864Z,48.21
2023-04-17T10:51:28.455Z,48.53
2023-04-17T10:52:34.277Z,49.55
2023-04-17T10:53:44.277Z,47.48
2023-04-17T10:55:25.590Z,48.51
2023-04-17T10:56:48.018Z,48.49
2023-04-17T10:58:02.693Z,46.78
2023-04-17T10:59:11.574Z,46.83
2023-04-17T11:00:16.619Z,44.55
2023-04-17T11:01:19.136Z,44.33
2023-04-17T11:02:34.381Z,43.43
2023-04-17T11:03:38.373Z,42.52
2023-04-17T11:04:40.879Z,43.59
2023-04-17T11:05:46.892Z,44.05
2023-04-17T11:06:57.531Z,42.53
2023-04-17T11:07:59.916Z,44.69
2023-04-17T11:09:09.477Z,44.94
2023-04-17T11:10:17.567Z,44.94
2023-04-17T11:11:27.021Z,42.56
2023-04-17T11:12:31.923Z,43.13
2023-04-17T11:13:34.865Z,44.38
2023-04-17T11:14:42.029Z,41.85
2023-04-17T11:15:44.805Z,42.37
2023-04-17T11:16:50.582Z,43.60
2023-04-17T11:17:55.729Z,43.42
2023-04-17T11:18:58.583Z,44.63
2023-04-17T11:20:01.254Z,41.80
2023-04-17T11:21:04.277Z,43.81
2023-04-17T11:22:10.913Z,44.31
2023-04-17T11:23:15.103Z,41.18
2023-04-17T11:24:27.616Z,42.30
2023-04-17T11:25:33.084Z,40.68
2023-04-17T11:26:47.188Z,42.58
2023-04-17T11:27:57.822Z,40.13
2023-04-17T11:29:01.576Z,38.58
2023-04-17T11:30:05.669Z,38.44
2023-04-17T11:31:09.666Z,42.19
2023-04-17T11:32:12.762Z,42.19
2023-04-17T11:33:15.949Z,38.17
2023-04-17T11:34:21.613Z,41.70
2023-04-17T11:35:30.277Z,39.20
2023-04-17T11:36:33.194Z,36.54
2023-04-17T11:37:35.474Z,37.99
2023-04-17T11:38:46.740Z,40.27
2023-04-17T11:39:49.732Z,39.63
2023-04-17T11:40:55.618Z,35.88
2023-04-17T11:41:58.543Z,35.15
2023-04-17T11:43:04.281Z,37.54
2023-04-17T11:44:11.855Z,40.61
2023-04-17T11:45:15.075Z,38.23
2023-04-17T11:46:18.825Z,41.37
2023-04-17T11:47:22.547Z,39.12
2023-04-17T11:48:29.751Z,39.53
2023-04-17T11:49:40.316Z,36.64
2023-04-17T11:50:47.201Z,37.58
2023-04-17T11:51:49.504Z,39.47
2023-04-17T11:52:51.766Z,36.66
2023-04-17T11:53:55.552Z,39.14
2023-04-17T11:54:58.302Z,33.92
2023-04-17T11:56:17.748Z,36.07
2023-04-17T11:57:20.623Z,35.39
2023-04-17T11:58:22.941Z,40.97
2023-04-17T11:59:34.194Z,39.12
2023-04-17T12:00:37.621Z,34.23
2023-04-17T12:01:44.071Z,35.92
2023-04-17T12:02:46.655Z,36.62
2023-04-17T12:03:49.461Z,35.02
2023-04-17T12:04:55.790Z,34.89
2023-04-17T12:06:04.178Z,35.52
2023-04-17T12:07:08.202Z,36.50
2023-04-17T12:08:10.661Z,36.61
2023-04-17T12:09:22.278Z,37.55
2023-04-17T12:10:24.767Z,36.51
2023-04-17T12:11:33.699Z,36.19
2023-04-17T12:12:36.304Z,35.87
2023-04-17T12:13:41.076Z,36.71
2023-04-17T12:14:43.434Z,36.57
2023-04-17T12:15:45.667Z,34.46
2023-04-17T12:16:50.273Z,35.82
2023-04-17T12:17:52.569Z,37.06
2023-04-17T12:18:55.354Z,34.07
2023-04-17T12:20:00.329Z,37.07
2023-04-17T12:21:03.482Z,34.85
2023-04-17T12:22:05.819Z,35.21
2023-04-17T12:23:08.602Z,34.84
2023-04-17T12:24:11.959Z,35.67
2023-04-17T12:25:14.928Z,36.19
2023-04-17T12:26:17.589Z,35.84
2023-04-17T12:27:19.870Z,37.57
2023-04-17T12:28:22.231Z,36.39
2023-04-17T12:29:40.477Z,37.52
2023-04-17T12:30:29.330Z,37.91
2023-04-17T12:31:31.642Z,37.60
2023-04-17T12:32:34.080Z,35.73
2023-04-17T12:33:36.439Z,35.20
2023-04-17T12:34:38.974Z,35.18
2023-04-17T12:35:41.970Z,36.32
2023-04-17T12:36:45.447Z,35.61
2023-04-17T12:37:50.609Z,37.80
2023-04-17T12:38:52.815Z,37.36
2023-04-17T12:39:55.127Z,36.75
2023-04-17T12:40:57.843Z,35.49
2023-04-17T12:42:00.153Z,36.04
2023-04-17T12:43:03.538Z,36.55
2023-04-17T12:44:06.616Z,35.50
2023-04-17T12:45:10.337Z,35.56
2023-04-17T12:46:12.968Z,36.55
2023-04-17T12:47:16.511Z,35.52
2023-04-17T12:48:22.828Z,35.87
2023-04-17T12:49:25.200Z,36.25
2023-04-17T12:50:28.013Z,36.17
2023-04-17T12:51:32.572Z,35.43
2023-04-17T12:52:35.293Z,36.39
2023-04-17T12:53:37.447Z,37.23
2023-04-17T12:54:41.508Z,37.38
2023-04-17T12:55:46.094Z,35.30
2023-04-17T12:56:48.874Z,34.42
2023-04-17T12:57:51.741Z,34.57
2023-04-17T12:58:55.360Z,34.44
2023-04-17T12:59:57.588Z,33.43
2023-04-17T13:01:00.909Z,34.33
2023-04-17T13:02:03.971Z,33.87
2023-04-17T13:03:07.160Z,35.14
2023-04-17T13:04:09.898Z,35.32
2023-04-17T13:05:12.335Z,35.13
2023-04-17T13:06:16.342Z,33.99
2023-04-17T13:07:22.364Z,33.75
2023-04-17T13:08:24.866Z,33.29
2023-04-17T13:09:30.162Z,34.29
2023-04-17T13:10:35.112Z,34.79
2023-04-17T13:11:38.043Z,34.59
2023-04-17T13:12:41.727Z,34.88
2023-04-17T13:13:44.585Z,35.02
2023-04-17T13:14:47.118Z,35.15
2023-04-17T13:15:49.795Z,33.09
2023-04-17T13:17:01.521Z,33.97
2023-04-17T13:18:04.823Z,34.09
2023-04-17T13:19:07.323Z,34.50
2023-04-17T13:20:11.610Z,33.10
2023-04-17T13:21:17.292Z,33.80
2023-04-17T13:22:21.143Z,34.46
2023-04-17T13:23:23.402Z,33.54
2023-04-17T13:24:25.741Z,33.12
2023-04-17T13:25:30.117Z,33.28
2023-04-17T13:26:33.324Z,34.09
2023-04-17T13:27:36.955Z,33.64
2023-04-17T13:28:39.451Z,33.48
2023-04-17T13:29:42.416Z,34.55
2023-04-17T13:30:45.357Z,34.31
2023-04-17T13:31:49.613Z,34.99
2023-04-17T13:32:53.018Z,33.71
2023-04-17T13:33:55.486Z,33.34
2023-04-17T13:34:58.811Z,34.28
2023-04-17T13:36:01.641Z,34.83
2023-04-17T13:37:04.319Z,34.21
2023-04-17T13:38:06.557Z,34.21
2023-04-17T13:39:09.098Z,33.94
2023-04-17T13:40:12.168Z,34.04
2023-04-17T13:41:14.767Z,33.08
2023-04-17T13:42:18.514Z,33.88
2023-04-17T13:43:20.742Z,35.04
2023-04-17T13:44:23.763Z,32.89
2023-04-17T13:45:26.475Z,34.13
2023-04-17T13:46:30.864Z,33.93
2023-04-17T13:47:34.573Z,33.89
2023-04-17T13:48:37.254Z,34.64
2023-04-17T13:49:39.610Z,34.28
2023-04-17T13:50:42.506Z,34.61